sensor_id;sensor_type;location;lat;lon;timestamp;pressure;altitude;pressure_sealevel;temperature;humidity
40872;BME280;26591;43.264;26.940;2023-02-05T00:00:18;98899.53;;;-0.05;83.92
40872;BME280;26591;43.264;26.940;2023-02-05T00:02:43;98910.31;;;0.29;82.42
40872;BME280;26591;43.264;26.940;2023-02-05T00:05:09;98915.16;;;-0.05;82.53
40872;BME280;26591;43.264;26.940;2023-02-05T00:07:37;98920.44;;;-0.07;82.40
40872;BME280;26591;43.264;26.940;2023-02-05T00:10:03;98912.09;;;-0.25;82.52
40872;BME280;26591;43.264;26.940;2023-02-05T00:12:28;98914.06;;;-0.28;83.38
40872;BME280;26591;43.264;26.940;2023-02-05T00:14:54;98926.16;;;-0.14;83.19
40872;BME280;26591;43.264;26.940;2023-02-05T00:17:19;98925.56;;;-0.05;82.81
40872;BME280;26591;43.264;26.940;2023-02-05T00:19:45;98925.88;;;-0.10;81.56
40872;BME280;26591;43.264;26.940;2023-02-05T00:22:10;98923.22;;;-0.23;82.16
40872;BME280;26591;43.264;26.940;2023-02-05T00:24:36;98929.59;;;-0.14;81.88
40872;BME280;26591;43.264;26.940;2023-02-05T00:27:01;98927.81;;;-0.26;82.01
40872;BME280;26591;43.264;26.940;2023-02-05T00:29:26;98938.34;;;-0.42;82.48
40872;BME280;26591;43.264;26.940;2023-02-05T00:31:52;98939.44;;;-0.32;82.30
40872;BME280;26591;43.264;26.940;2023-02-05T00:34:17;98949.94;;;-0.34;81.68
40872;BME280;26591;43.264;26.940;2023-02-05T00:36:43;98947.81;;;-0.41;82.05
40872;BME280;26591;43.264;26.940;2023-02-05T00:39:09;98956.97;;;-0.49;82.27
40872;BME280;26591;43.264;26.940;2023-02-05T00:41:36;98960.66;;;-0.53;81.99
40872;BME280;26591;43.264;26.940;2023-02-05T00:44:02;98969.16;;;-0.64;82.92
40872;BME280;26591;43.264;26.940;2023-02-05T00:46:29;98969.25;;;-0.65;82.43
40872;BME280;26591;43.264;26.940;2023-02-05T00:48:55;98964.88;;;-0.65;83.14
40872;BME280;26591;43.264;26.940;2023-02-05T00:51:20;98964.34;;;-0.70;83.16
40872;BME280;26591;43.264;26.940;2023-02-05T00:53:46;98956.47;;;-0.83;83.58
40872;BME280;26591;43.264;26.940;2023-02-05T00:56:11;98953.31;;;-0.88;83.56
40872;BME280;26591;43.264;26.940;2023-02-05T00:58:42;98952.00;;;-0.81;83.82
40872;BME280;26591;43.264;26.940;2023-02-05T01:01:13;98965.41;;;-1.01;83.96
40872;BME280;26591;43.264;26.940;2023-02-05T01:03:39;98963.47;;;-0.98;83.19
40872;BME280;26591;43.264;26.940;2023-02-05T01:06:05;98970.03;;;-0.92;82.57
40872;BME280;26591;43.264;26.940;2023-02-05T01:08:30;98957.69;;;-0.88;82.47
40872;BME280;26591;43.264;26.940;2023-02-05T01:10:56;98965.00;;;-0.81;82.80
40872;BME280;26591;43.264;26.940;2023-02-05T01:13:22;98967.06;;;-1.00;82.09
40872;BME280;26591;43.264;26.940;2023-02-05T01:15:48;98971.91;;;-1.09;82.34
40872;BME280;26591;43.264;26.940;2023-02-05T01:18:13;98977.47;;;-1.00;81.50
40872;BME280;26591;43.264;26.940;2023-02-05T01:20:40;98979.78;;;-0.96;82.19
40872;BME280;26591;43.264;26.940;2023-02-05T01:23:06;98982.00;;;-1.04;82.07
40872;BME280;26591;43.264;26.940;2023-02-05T01:25:32;98976.63;;;-1.30;82.20
40872;BME280;26591;43.264;26.940;2023-02-05T01:27:58;98975.31;;;-1.37;81.55
40872;BME280;26591;43.264;26.940;2023-02-05T01:30:23;98978.59;;;-1.48;82.49
40872;BME280;26591;43.264;26.940;2023-02-05T01:32:49;98992.28;;;-1.46;81.70
40872;BME280;26591;43.264;26.940;2023-02-05T01:35:14;98994.25;;;-1.20;81.51
40872;BME280;26591;43.264;26.940;2023-02-05T01:37:40;98986.56;;;-1.36;80.72
40872;BME280;26591;43.264;26.940;2023-02-05T01:40:06;99005.25;;;-1.46;80.59
40872;BME280;26591;43.264;26.940;2023-02-05T01:42:32;98995.78;;;-1.61;80.65
40872;BME280;26591;43.264;26.940;2023-02-05T01:46:03;98995.41;;;-1.70;81.86
40872;BME280;26591;43.264;26.940;2023-02-05T01:48:27;99012.53;;;-1.67;80.60
40872;BME280;26591;43.264;26.940;2023-02-05T01:51:01;99022.47;;;-1.59;80.45
40872;BME280;26591;43.264;26.940;2023-02-05T01:53:30;99020.69;;;-1.73;79.86
40872;BME280;26591;43.264;26.940;2023-02-05T01:56:59;99030.44;;;-1.77;79.81
40872;BME280;26591;43.264;26.940;2023-02-05T01:58:56;99030.91;;;-1.70;80.60
40872;BME280;26591;43.264;26.940;2023-02-05T02:01:23;99042.16;;;-1.86;79.53
40872;BME280;26591;43.264;26.940;2023-02-05T02:03:50;99039.94;;;-1.77;79.23
40872;BME280;26591;43.264;26.940;2023-02-05T02:06:18;99049.06;;;-1.70;79.08
40872;BME280;26591;43.264;26.940;2023-02-05T02:08:43;99044.41;;;-1.49;79.22
40872;BME280;26591;43.264;26.940;2023-02-05T02:11:11;99051.34;;;-1.80;79.86
40872;BME280;26591;43.264;26.940;2023-02-05T02:13:41;99057.09;;;-1.75;79.37
40872;BME280;26591;43.264;26.940;2023-02-05T02:16:09;99060.56;;;-1.90;80.24
40872;BME280;26591;43.264;26.940;2023-02-05T02:18:35;99066.16;;;-1.82;79.50
40872;BME280;26591;43.264;26.940;2023-02-05T02:22:05;99061.75;;;-1.96;80.38
40872;BME280;26591;43.264;26.940;2023-02-05T02:29:18;99080.53;;;-2.07;80.34
40872;BME280;26591;43.264;26.940;2023-02-05T02:31:56;99086.84;;;-2.12;80.46
40872;BME280;26591;43.264;26.940;2023-02-05T02:34:55;99079.34;;;-2.17;80.58
40872;BME280;26591;43.264;26.940;2023-02-05T02:37:29;99104.91;;;-2.43;81.54
40872;BME280;26591;43.264;26.940;2023-02-05T02:40:08;99109.28;;;-2.27;80.25
40872;BME280;26591;43.264;26.940;2023-02-05T02:42:41;99115.13;;;-2.24;81.00
40872;BME280;26591;43.264;26.940;2023-02-05T02:45:12;99108.63;;;-2.31;80.67
40872;BME280;26591;43.264;26.940;2023-02-05T02:47:52;99113.44;;;-2.41;81.22
40872;BME280;26591;43.264;26.940;2023-02-05T02:52:49;99131.53;;;-2.23;81.38
40872;BME280;26591;43.264;26.940;2023-02-05T02:55:18;99129.53;;;-2.02;81.30
40872;BME280;26591;43.264;26.940;2023-02-05T02:57:46;99138.00;;;-2.15;80.08
40872;BME280;26591;43.264;26.940;2023-02-05T03:00:21;99143.31;;;-2.34;81.09
40872;BME280;26591;43.264;26.940;2023-02-05T03:02:49;99150.34;;;-2.36;80.77
40872;BME280;26591;43.264;26.940;2023-02-05T03:05:19;99149.44;;;-2.03;81.06
40872;BME280;26591;43.264;26.940;2023-02-05T03:07:56;99158.13;;;-2.04;79.77
40872;BME280;26591;43.264;26.940;2023-02-05T03:10:37;99159.16;;;-2.22;80.50
40872;BME280;26591;43.264;26.940;2023-02-05T03:13:09;99162.22;;;-2.32;80.13
40872;BME280;26591;43.264;26.940;2023-02-05T03:15:37;99157.03;;;-2.32;81.04
40872;BME280;26591;43.264;26.940;2023-02-05T03:18:05;99168.16;;;-2.30;80.57
40872;BME280;26591;43.264;26.940;2023-02-05T03:20:57;99175.28;;;-2.17;80.82
40872;BME280;26591;43.264;26.940;2023-02-05T03:23:25;99173.19;;;-2.26;80.74
40872;BME280;26591;43.264;26.940;2023-02-05T03:25:57;99177.34;;;-2.40;80.32
40872;BME280;26591;43.264;26.940;2023-02-05T03:28:22;99182.13;;;-2.32;80.42
40872;BME280;26591;43.264;26.940;2023-02-05T03:30:52;99179.66;;;-2.51;79.83
40872;BME280;26591;43.264;26.940;2023-02-05T03:36:24;99181.44;;;-2.36;79.11
40872;BME280;26591;43.264;26.940;2023-02-05T03:44:44;99190.88;;;-2.68;80.30
40872;BME280;26591;43.264;26.940;2023-02-05T03:52:42;99195.22;;;-2.51;79.60
40872;BME280;26591;43.264;26.940;2023-02-05T03:55:13;99194.75;;;-2.59;79.36
40872;BME280;26591;43.264;26.940;2023-02-05T03:57:56;99199.50;;;-2.68;79.07
40872;BME280;26591;43.264;26.940;2023-02-05T04:00:24;99212.13;;;-2.62;79.80
40872;BME280;26591;43.264;26.940;2023-02-05T04:02:49;99196.00;;;-2.67;78.62
40872;BME280;26591;43.264;26.940;2023-02-05T04:05:15;99206.81;;;-2.76;79.26
40872;BME280;26591;43.264;26.940;2023-02-05T04:07:40;99208.72;;;-2.62;78.98
40872;BME280;26591;43.264;26.940;2023-02-05T04:10:06;99205.59;;;-2.69;78.76
40872;BME280;26591;43.264;26.940;2023-02-05T04:12:31;99220.22;;;-2.68;77.70
40872;BME280;26591;43.264;26.940;2023-02-05T04:14:57;99219.16;;;-2.81;77.92
40872;BME280;26591;43.264;26.940;2023-02-05T04:17:22;99221.91;;;-2.67;77.51
40872;BME280;26591;43.264;26.940;2023-02-05T04:19:48;99223.41;;;-2.63;78.09
40872;BME280;26591;43.264;26.940;2023-02-05T04:22:13;99224.09;;;-2.59;78.00
40872;BME280;26591;43.264;26.940;2023-02-05T04:24:39;99234.38;;;-2.75;77.64
40872;BME280;26591;43.264;26.940;2023-02-05T04:27:04;99250.09;;;-2.61;77.92
40872;BME280;26591;43.264;26.940;2023-02-05T04:29:30;99247.34;;;-2.57;77.04
40872;BME280;26591;43.264;26.940;2023-02-05T04:31:55;99245.44;;;-2.71;76.76
40872;BME280;26591;43.264;26.940;2023-02-05T04:37:42;99235.84;;;-2.69;76.04
40872;BME280;26591;43.264;26.940;2023-02-05T04:40:29;99244.13;;;-2.63;76.06
40872;BME280;26591;43.264;26.940;2023-02-05T04:42:54;99250.03;;;-2.77;77.22
40872;BME280;26591;43.264;26.940;2023-02-05T04:45:20;99256.78;;;-2.92;77.99
40872;BME280;26591;43.264;26.940;2023-02-05T04:47:47;99257.16;;;-2.99;78.28
40872;BME280;26591;43.264;26.940;2023-02-05T04:50:12;99267.69;;;-2.85;77.90
40872;BME280;26591;43.264;26.940;2023-02-05T04:52:38;99275.16;;;-2.79;77.20
40872;BME280;26591;43.264;26.940;2023-02-05T04:55:04;99266.69;;;-3.00;78.07
40872;BME280;26591;43.264;26.940;2023-02-05T04:57:30;99278.66;;;-2.97;77.54
40872;BME280;26591;43.264;26.940;2023-02-05T04:59:55;99277.97;;;-3.01;78.05
40872;BME280;26591;43.264;26.940;2023-02-05T05:02:21;99269.56;;;-3.24;78.04
40872;BME280;26591;43.264;26.940;2023-02-05T05:04:47;99281.19;;;-3.15;78.06
40872;BME280;26591;43.264;26.940;2023-02-05T05:07:13;99285.09;;;-3.24;77.82
40872;BME280;26591;43.264;26.940;2023-02-05T05:09:40;99294.72;;;-3.27;77.70
40872;BME280;26591;43.264;26.940;2023-02-05T05:12:05;99301.84;;;-3.13;77.19
40872;BME280;26591;43.264;26.940;2023-02-05T05:14:31;99298.34;;;-3.12;75.89
40872;BME280;26591;43.264;26.940;2023-02-05T05:16:56;99308.22;;;-3.20;75.89
40872;BME280;26591;43.264;26.940;2023-02-05T05:19:21;99306.25;;;-3.15;75.79
40872;BME280;26591;43.264;26.940;2023-02-05T05:21:47;99307.66;;;-3.27;76.04
40872;BME280;26591;43.264;26.940;2023-02-05T05:24:13;99313.91;;;-3.31;76.16
40872;BME280;26591;43.264;26.940;2023-02-05T05:26:38;99318.59;;;-3.40;76.21
40872;BME280;26591;43.264;26.940;2023-02-05T05:29:12;99320.75;;;-3.49;76.09
40872;BME280;26591;43.264;26.940;2023-02-05T05:31:38;99321.75;;;-3.33;75.99
40872;BME280;26591;43.264;26.940;2023-02-05T05:34:04;99331.06;;;-3.29;76.92
40872;BME280;26591;43.264;26.940;2023-02-05T05:36:29;99332.94;;;-3.32;76.03
40872;BME280;26591;43.264;26.940;2023-02-05T05:38:55;99342.19;;;-3.27;76.42
40872;BME280;26591;43.264;26.940;2023-02-05T05:41:23;99335.44;;;-3.31;75.70
40872;BME280;26591;43.264;26.940;2023-02-05T05:44:07;99336.34;;;-3.32;75.90
40872;BME280;26591;43.264;26.940;2023-02-05T05:46:34;99341.88;;;-3.40;76.65
40872;BME280;26591;43.264;26.940;2023-02-05T05:49:00;99363.28;;;-2.08;80.92
40872;BME280;26591;43.264;26.940;2023-02-05T05:51:28;99363.72;;;-2.53;75.52
40872;BME280;26591;43.264;26.940;2023-02-05T05:53:54;99373.53;;;-2.77;74.04
40872;BME280;26591;43.264;26.940;2023-02-05T05:56:20;99369.75;;;-2.70;73.04
40872;BME280;26591;43.264;26.940;2023-02-05T05:58:47;99371.94;;;-2.80;73.07
40872;BME280;26591;43.264;26.940;2023-02-05T06:01:13;99375.50;;;-3.01;73.87
40872;BME280;26591;43.264;26.940;2023-02-05T06:03:40;99384.91;;;-2.99;73.84
40872;BME280;26591;43.264;26.940;2023-02-05T06:06:07;99382.00;;;-2.93;73.64
40872;BME280;26591;43.264;26.940;2023-02-05T06:08:33;99383.50;;;-3.06;73.38
40872;BME280;26591;43.264;26.940;2023-02-05T06:10:59;99375.94;;;-3.11;73.55
40872;BME280;26591;43.264;26.940;2023-02-05T06:13:25;99378.41;;;-3.27;74.34
40872;BME280;26591;43.264;26.940;2023-02-05T06:18:21;99394.16;;;-2.93;75.75
40872;BME280;26591;43.264;26.940;2023-02-05T06:20:47;99400.22;;;-2.94;74.01
40872;BME280;26591;43.264;26.940;2023-02-05T06:23:12;99391.97;;;-3.22;74.24
40872;BME280;26591;43.264;26.940;2023-02-05T06:25:38;99403.31;;;-3.24;74.25
40872;BME280;26591;43.264;26.940;2023-02-05T06:28:04;99392.53;;;-3.34;75.00
40872;BME280;26591;43.264;26.940;2023-02-05T06:30:29;99401.19;;;-3.35;74.01
40872;BME280;26591;43.264;26.940;2023-02-05T06:35:26;99427.28;;;-3.40;74.44
40872;BME280;26591;43.264;26.940;2023-02-05T06:37:52;99420.53;;;-3.42;74.26
40872;BME280;26591;43.264;26.940;2023-02-05T06:40:17;99407.50;;;-3.41;74.51
40872;BME280;26591;43.264;26.940;2023-02-05T06:42:46;99415.28;;;-3.22;73.79
40872;BME280;26591;43.264;26.940;2023-02-05T06:45:12;99423.47;;;-3.12;73.59
40872;BME280;26591;43.264;26.940;2023-02-05T06:47:38;99418.72;;;-3.02;72.21
40872;BME280;26591;43.264;26.940;2023-02-05T06:50:05;99420.41;;;-3.20;72.69
40872;BME280;26591;43.264;26.940;2023-02-05T06:52:30;99426.81;;;-3.29;73.29
40872;BME280;26591;43.264;26.940;2023-02-05T06:54:56;99430.59;;;-3.36;72.49
40872;BME280;26591;43.264;26.940;2023-02-05T06:59:59;99417.47;;;-3.31;73.78
40872;BME280;26591;43.264;26.940;2023-02-05T07:02:24;99414.66;;;-3.27;73.75
40872;BME280;26591;43.264;26.940;2023-02-05T07:04:53;99438.22;;;-3.33;72.71
40872;BME280;26591;43.264;26.940;2023-02-05T07:07:22;99446.56;;;-3.26;73.08
40872;BME280;26591;43.264;26.940;2023-02-05T07:09:47;99445.59;;;-3.24;73.21
40872;BME280;26591;43.264;26.940;2023-02-05T07:12:20;99457.88;;;-3.29;72.25
40872;BME280;26591;43.264;26.940;2023-02-05T07:14:46;99454.66;;;-3.34;73.58
40872;BME280;26591;43.264;26.940;2023-02-05T07:22:43;99458.16;;;-3.16;72.93
40872;BME280;26591;43.264;26.940;2023-02-05T07:25:11;99464.09;;;-3.33;71.98
40872;BME280;26591;43.264;26.940;2023-02-05T07:27:37;99456.91;;;-3.26;72.40
40872;BME280;26591;43.264;26.940;2023-02-05T07:30:03;99454.19;;;-3.23;72.53
40872;BME280;26591;43.264;26.940;2023-02-05T07:32:28;99474.13;;;-3.25;71.69
40872;BME280;26591;43.264;26.940;2023-02-05T07:35:21;99456.31;;;-3.12;71.14
40872;BME280;26591;43.264;26.940;2023-02-05T07:37:47;99457.00;;;-3.09;70.96
40872;BME280;26591;43.264;26.940;2023-02-05T07:40:12;99456.88;;;-2.86;71.17
40872;BME280;26591;43.264;26.940;2023-02-05T07:42:38;99469.13;;;-2.71;72.90
40872;BME280;26591;43.264;26.940;2023-02-05T07:45:03;99473.31;;;-2.87;69.76
40872;BME280;26591;43.264;26.940;2023-02-05T07:47:29;99471.69;;;-2.52;69.18
40872;BME280;26591;43.264;26.940;2023-02-05T07:49:54;99468.28;;;-2.91;69.81
40872;BME280;26591;43.264;26.940;2023-02-05T07:52:20;99470.66;;;-2.86;69.85
40872;BME280;26591;43.264;26.940;2023-02-05T07:54:46;99469.25;;;-2.74;69.49
40872;BME280;26591;43.264;26.940;2023-02-05T07:57:11;99475.69;;;-2.64;68.78
40872;BME280;26591;43.264;26.940;2023-02-05T07:59:37;99481.47;;;-2.39;69.39
40872;BME280;26591;43.264;26.940;2023-02-05T08:02:03;99483.72;;;-2.51;67.72
40872;BME280;26591;43.264;26.940;2023-02-05T08:04:28;99489.25;;;-2.39;68.34
40872;BME280;26591;43.264;26.940;2023-02-05T08:06:54;99481.88;;;-2.30;67.43
40872;BME280;26591;43.264;26.940;2023-02-05T08:09:19;99488.59;;;-2.25;67.50
40872;BME280;26591;43.264;26.940;2023-02-05T08:11:45;99487.25;;;-1.97;66.66
40872;BME280;26591;43.264;26.940;2023-02-05T08:14:10;99490.31;;;-1.72;66.32
40872;BME280;26591;43.264;26.940;2023-02-05T08:16:36;99493.06;;;-1.75;65.74
40872;BME280;26591;43.264;26.940;2023-02-05T08:19:02;99494.97;;;-1.78;65.19
40872;BME280;26591;43.264;26.940;2023-02-05T08:21:29;99503.81;;;-1.65;64.14
40872;BME280;26591;43.264;26.940;2023-02-05T08:23:54;99502.38;;;-1.71;64.03
40872;BME280;26591;43.264;26.940;2023-02-05T08:26:22;99510.25;;;-1.72;62.69
40872;BME280;26591;43.264;26.940;2023-02-05T08:28:48;99503.72;;;-1.46;64.03
40872;BME280;26591;43.264;26.940;2023-02-05T08:31:15;99512.81;;;-1.37;62.73
40872;BME280;26591;43.264;26.940;2023-02-05T08:33:41;99513.44;;;-1.16;62.77
40872;BME280;26591;43.264;26.940;2023-02-05T08:36:08;99492.88;;;-1.03;62.24
40872;BME280;26591;43.264;26.940;2023-02-05T08:38:34;99514.06;;;-1.11;61.21
40872;BME280;26591;43.264;26.940;2023-02-05T08:41:03;99500.16;;;-1.10;61.71
40872;BME280;26591;43.264;26.940;2023-02-05T08:43:43;99501.28;;;-0.82;62.43
40872;BME280;26591;43.264;26.940;2023-02-05T08:46:11;99510.78;;;-0.65;61.85
40872;BME280;26591;43.264;26.940;2023-02-05T08:48:37;99535.59;;;-0.75;62.23
40872;BME280;26591;43.264;26.940;2023-02-05T08:51:03;99521.63;;;-0.56;61.52
40872;BME280;26591;43.264;26.940;2023-02-05T08:53:30;99532.28;;;-0.95;61.06
40872;BME280;26591;43.264;26.940;2023-02-05T08:56:00;99523.81;;;-0.49;65.58
40872;BME280;26591;43.264;26.940;2023-02-05T08:58:26;99523.50;;;-0.92;61.81
40872;BME280;26591;43.264;26.940;2023-02-05T09:00:59;99534.84;;;-0.77;61.38
40872;BME280;26591;43.264;26.940;2023-02-05T09:03:24;99536.66;;;-0.95;61.48
40872;BME280;26591;43.264;26.940;2023-02-05T09:05:49;99536.00;;;-0.83;61.03
40872;BME280;26591;43.264;26.940;2023-02-05T09:08:15;99534.84;;;-1.11;61.76
40872;BME280;26591;43.264;26.940;2023-02-05T09:10:43;99531.03;;;-1.03;61.68
40872;BME280;26591;43.264;26.940;2023-02-05T09:13:09;99519.38;;;-1.30;62.32
40872;BME280;26591;43.264;26.940;2023-02-05T09:15:40;99527.72;;;-1.07;62.59
40872;BME280;26591;43.264;26.940;2023-02-05T09:18:05;99544.19;;;-0.90;62.09
40872;BME280;26591;43.264;26.940;2023-02-05T09:20:31;99531.06;;;-1.21;61.57
40872;BME280;26591;43.264;26.940;2023-02-05T09:22:56;99542.34;;;-1.22;62.00
40872;BME280;26591;43.264;26.940;2023-02-05T09:25:22;99530.03;;;-1.18;61.16
40872;BME280;26591;43.264;26.940;2023-02-05T09:27:47;99536.91;;;-0.84;61.82
40872;BME280;26591;43.264;26.940;2023-02-05T09:30:13;99530.66;;;-1.13;61.07
40872;BME280;26591;43.264;26.940;2023-02-05T09:35:04;99534.16;;;-0.97;62.37
40872;BME280;26591;43.264;26.940;2023-02-05T09:37:29;99526.97;;;-0.75;63.27
40872;BME280;26591;43.264;26.940;2023-02-05T09:39:55;99523.94;;;-0.84;63.30
40872;BME280;26591;43.264;26.940;2023-02-05T09:42:31;99521.53;;;-0.71;61.96
40872;BME280;26591;43.264;26.940;2023-02-05T09:50:30;99537.41;;;-0.93;63.06
40872;BME280;26591;43.264;26.940;2023-02-05T09:53:03;99535.84;;;-0.64;62.32
40872;BME280;26591;43.264;26.940;2023-02-05T09:55:32;99544.91;;;-0.55;61.63
40872;BME280;26591;43.264;26.940;2023-02-05T09:58:05;99535.94;;;-0.65;62.54
40872;BME280;26591;43.264;26.940;2023-02-05T10:00:44;99533.91;;;-0.76;62.00
40872;BME280;26591;43.264;26.940;2023-02-05T10:03:46;99548.72;;;-0.44;61.30
40872;BME280;26591;43.264;26.940;2023-02-05T10:25:45;99538.63;;;-0.67;60.67
40872;BME280;26591;43.264;26.940;2023-02-05T10:36:49;99543.75;;;-0.49;59.27
40872;BME280;26591;43.264;26.940;2023-02-05T10:39:17;99551.81;;;-0.54;58.78
40872;BME280;26591;43.264;26.940;2023-02-05T10:41:55;99554.75;;;-0.12;58.81
40872;BME280;26591;43.264;26.940;2023-02-05T10:44:33;99556.84;;;-0.35;57.70
40872;BME280;26591;43.264;26.940;2023-02-05T10:47:13;99544.75;;;-0.52;57.69
40872;BME280;26591;43.264;26.940;2023-02-05T10:49:56;99561.72;;;-0.44;57.71
40872;BME280;26591;43.264;26.940;2023-02-05T10:52:25;99545.06;;;-0.90;60.59
40872;BME280;26591;43.264;26.940;2023-02-05T10:54:51;99548.56;;;-0.91;61.42
40872;BME280;26591;43.264;26.940;2023-02-05T10:57:19;99544.34;;;-1.27;60.92
40872;BME280;26591;43.264;26.940;2023-02-05T10:59:53;99546.88;;;-0.92;60.11
40872;BME280;26591;43.264;26.940;2023-02-05T11:02:21;99539.66;;;-1.03;59.08
40872;BME280;26591;43.264;26.940;2023-02-05T11:04:55;99551.63;;;-1.00;58.16
40872;BME280;26591;43.264;26.940;2023-02-05T11:07:34;99548.22;;;-1.18;56.85
40872;BME280;26591;43.264;26.940;2023-02-05T11:12:43;99543.63;;;-0.96;54.57
40872;BME280;26591;43.264;26.940;2023-02-05T11:15:18;99552.25;;;-0.79;55.43
40872;BME280;26591;43.264;26.940;2023-02-05T11:17:55;99548.22;;;-0.85;55.42
40872;BME280;26591;43.264;26.940;2023-02-05T11:20:27;99535.44;;;-0.72;55.60
40872;BME280;26591;43.264;26.940;2023-02-05T11:25:51;99547.97;;;-0.47;53.27
40872;BME280;26591;43.264;26.940;2023-02-05T11:28:28;99538.88;;;-0.39;52.12
40872;BME280;26591;43.264;26.940;2023-02-05T11:30:54;99551.13;;;-0.09;52.62
40872;BME280;26591;43.264;26.940;2023-02-05T11:40:55;99539.13;;;-0.28;50.54
40872;BME280;26591;43.264;26.940;2023-02-05T11:43:26;99539.47;;;-0.50;50.70
40872;BME280;26591;43.264;26.940;2023-02-05T11:45:52;99543.44;;;-0.43;51.13
40872;BME280;26591;43.264;26.940;2023-02-05T11:51:05;99528.16;;;-0.49;50.05
40872;BME280;26591;43.264;26.940;2023-02-05T11:53:32;99545.69;;;-0.69;50.43
40872;BME280;26591;43.264;26.940;2023-02-05T11:56:08;99536.09;;;-0.68;50.04
40872;BME280;26591;43.264;26.940;2023-02-05T11:58:34;99535.34;;;-0.70;48.10
40872;BME280;26591;43.264;26.940;2023-02-05T12:01:23;99534.53;;;-0.55;49.73
40872;BME280;26591;43.264;26.940;2023-02-05T12:06:37;99554.66;;;-0.42;46.79
40872;BME280;26591;43.264;26.940;2023-02-05T12:09:08;99551.44;;;-0.64;47.07
40872;BME280;26591;43.264;26.940;2023-02-05T12:14:36;99557.66;;;-0.82;48.82
40872;BME280;26591;43.264;26.940;2023-02-05T12:17:30;99561.56;;;-0.91;49.80
40872;BME280;26591;43.264;26.940;2023-02-05T12:23:16;99561.69;;;-0.77;48.15
40872;BME280;26591;43.264;26.940;2023-02-05T12:29:07;99565.50;;;-0.84;49.66
40872;BME280;26591;43.264;26.940;2023-02-05T12:39:44;99568.38;;;-0.72;49.73
40872;BME280;26591;43.264;26.940;2023-02-05T12:50:59;99591.78;;;-0.72;49.56
40872;BME280;26591;43.264;26.940;2023-02-05T12:58:52;99600.53;;;-0.91;51.53
40872;BME280;26591;43.264;26.940;2023-02-05T13:04:33;99598.31;;;-0.81;49.35
40872;BME280;26591;43.264;26.940;2023-02-05T13:09:56;99609.44;;;-0.79;49.95
40872;BME280;26591;43.264;26.940;2023-02-05T13:12:26;99598.03;;;-1.10;48.30
40872;BME280;26591;43.264;26.940;2023-02-05T13:15:03;99599.31;;;-1.01;48.63
40872;BME280;26591;43.264;26.940;2023-02-05T13:17:39;99605.22;;;-0.64;48.00
40872;BME280;26591;43.264;26.940;2023-02-05T13:20:17;99602.28;;;-0.92;46.42
40872;BME280;26591;43.264;26.940;2023-02-05T13:22:54;99610.41;;;-1.33;45.72
40872;BME280;26591;43.264;26.940;2023-02-05T13:25:44;99608.19;;;-1.41;46.79
40872;BME280;26591;43.264;26.940;2023-02-05T13:28:45;99591.09;;;-1.27;46.21
40872;BME280;26591;43.264;26.940;2023-02-05T13:33:44;99618.25;;;-1.70;47.56
40872;BME280;26591;43.264;26.940;2023-02-05T13:49:49;99625.44;;;-1.94;49.71
40872;BME280;26591;43.264;26.940;2023-02-05T14:00:39;99652.16;;;-1.92;52.34
40872;BME280;26591;43.264;26.940;2023-02-05T14:03:07;99643.69;;;-1.95;52.15
40872;BME280;26591;43.264;26.940;2023-02-05T14:05:38;99655.16;;;-1.82;51.39
40872;BME280;26591;43.264;26.940;2023-02-05T14:08:25;99658.94;;;-1.89;51.08
40872;BME280;26591;43.264;26.940;2023-02-05T14:11:10;99657.47;;;-1.76;51.56
40872;BME280;26591;43.264;26.940;2023-02-05T14:13:35;99653.63;;;-1.86;51.36
40872;BME280;26591;43.264;26.940;2023-02-05T14:23:56;99658.19;;;-2.30;53.39
40872;BME280;26591;43.264;26.940;2023-02-05T14:26:48;99649.06;;;-2.19;52.22
40872;BME280;26591;43.264;26.940;2023-02-05T14:29:38;99651.38;;;-2.51;51.67
40872;BME280;26591;43.264;26.940;2023-02-05T14:37:44;99659.44;;;-2.78;53.71
40872;BME280;26591;43.264;26.940;2023-02-05T14:40:29;99670.44;;;-2.73;53.79
40872;BME280;26591;43.264;26.940;2023-02-05T14:42:58;99673.75;;;-2.69;54.11
40872;BME280;26591;43.264;26.940;2023-02-05T14:45:25;99675.38;;;-2.67;55.31
40872;BME280;26591;43.264;26.940;2023-02-05T14:47:55;99677.22;;;-2.50;54.74
40872;BME280;26591;43.264;26.940;2023-02-05T14:50:26;99669.91;;;-2.61;55.12
40872;BME280;26591;43.264;26.940;2023-02-05T14:52:58;99668.44;;;-2.66;54.50
40872;BME280;26591;43.264;26.940;2023-02-05T14:55:27;99670.84;;;-2.82;54.74
40872;BME280;26591;43.264;26.940;2023-02-05T14:57:59;99677.81;;;-2.64;54.67
40872;BME280;26591;43.264;26.940;2023-02-05T15:00:33;99677.31;;;-2.72;55.86
40872;BME280;26591;43.264;26.940;2023-02-05T15:03:06;99685.00;;;-2.70;55.09
40872;BME280;26591;43.264;26.940;2023-02-05T15:05:49;99680.09;;;-2.77;56.04
40872;BME280;26591;43.264;26.940;2023-02-05T15:08:51;99679.41;;;-2.80;56.51
40872;BME280;26591;43.264;26.940;2023-02-05T15:14:39;99678.75;;;-2.85;56.00
40872;BME280;26591;43.264;26.940;2023-02-05T15:19:51;99677.50;;;-3.18;57.37
40872;BME280;26591;43.264;26.940;2023-02-05T15:22:30;99686.66;;;-3.09;56.89
40872;BME280;26591;43.264;26.940;2023-02-05T15:24:59;99682.84;;;-3.23;57.23
40872;BME280;26591;43.264;26.940;2023-02-05T15:27:39;99681.91;;;-2.99;56.26
40872;BME280;26591;43.264;26.940;2023-02-05T15:30:07;99680.09;;;-3.18;56.87
40872;BME280;26591;43.264;26.940;2023-02-05T15:32:46;99690.78;;;-3.05;57.42
40872;BME280;26591;43.264;26.940;2023-02-05T15:35:17;99683.13;;;-3.08;57.56
40872;BME280;26591;43.264;26.940;2023-02-05T15:40:27;99695.66;;;-3.19;56.52
40872;BME280;26591;43.264;26.940;2023-02-05T15:43:00;99700.44;;;-3.31;56.84
40872;BME280;26591;43.264;26.940;2023-02-05T15:45:33;99709.41;;;-3.40;57.58
40872;BME280;26591;43.264;26.940;2023-02-05T15:50:34;99705.44;;;-2.83;58.10
40872;BME280;26591;43.264;26.940;2023-02-05T15:53:02;99712.97;;;-2.99;57.34
40872;BME280;26591;43.264;26.940;2023-02-05T15:55:30;99712.91;;;-3.18;57.21
40872;BME280;26591;43.264;26.940;2023-02-05T15:58:06;99719.09;;;-3.23;57.37
40872;BME280;26591;43.264;26.940;2023-02-05T16:00:33;99721.22;;;-3.32;57.11
40872;BME280;26591;43.264;26.940;2023-02-05T16:03:35;99728.03;;;-3.30;57.67